Frankfort, MI (49635)

11:52 PM EST on February 28, 2015 (GMT -0500)
Crystal Lake Pinecrest | Change Station
CLOSE
Current Station
Personal Weather Station
Location: Beulah, MI
Elevation: 607 ft
Nearby Weather Stations

Elev 607 ft 44.66 °N, 86.14 °W | Updated 41 seconds ago

Overcast
Overcast
14.7 °F
Feels Like 15 °F
N
2.9
Wind Variable Wind from SSE
Gusts 4.0 mph

Today
High -- | Low -- °F
--% Chance of Precip.
Yesterday
High -- | Low -- °F
Precip. -- in
7:24 AM 6:31 PM
Waxing Gibbous, 82% visible
Pressure 30.46 in
Visibility 10.0 miles
Clouds Mostly Cloudy 2900 ft
Overcast 10000 ft
Windchill 15 °F
Dew Point 6 °F
Humidity 69%
Rainfall 0.00 in
Snow Depth Not available.
UV 0 out of 12
Pollen .30 out of 12
Air Quality Not available.
Flu Activity Not available.
METAR KFKS 010434Z AUTO 16005KT 10SM BKN029 OVC100 M09/M15 A3046 RMK AO2 T10921152

More Conditions Fewer Conditions

Pressure 30.46 in
Visibility 10.0 miles
Clouds Mostly Cloudy 2900 ft
Overcast 10000 ft
Windchill 15 °F
Dew Point 6 °F
Humidity 69%
Rainfall 0.00 in
Snow Depth Not available.
UV 0 out of 12
Pollen .30 out of 12
Air Quality Not available.
Flu Activity Not available.
METAR KFKS 010434Z AUTO 16005KT 10SM BKN029 OVC100 M09/M15 A3046 RMK AO2 T10921152

More Conditions Fewer Conditions

Nowcast | as of 11:00 PM EST on February 28, 2015

At 12 am...mostly cloudy. Temperature 13. South winds 8 mph. At 2 am...very light snow likely. Temperature 14. South winds 8 mph. At 4 am...very light snow. Temperature 16. Southwest winds 7 mph. At 6 am...very light snow. Temperature 17. Southwest winds 7 mph.

×

10-Day Weather Forecast

Almanac

Astronomy

Feb. 28, 2015 Rise Set
Actual Time
Civil Twilight
Nautical Twilight
Astronomical Twilight
Moon
Length of Visible Light
Length of Day
Tomorrow will be .
, % of the Moon is Illuminated

Today's Extremes

State Highs State Lows

Community

WunderPhotos

Upload Photos

1,801,320 photos uploaded!

WunderBlogs® & News

Nearby

Air Quality

  Air Quality AQ Index Pollutant
Not available.

Snow Depth

Station Depth Elevation

Earthquake Activity

City Distance Mag. Time & Date
Minimum magnitude displayed is 2.5.

Coastal Water Temperatures

Place Temperature

Nearby Weather Stations